createdAt,value
2023-04-30T00:00:42.170Z,8.60
2023-04-30T00:03:13.993Z,10.60
2023-04-30T00:05:45.742Z,10.13
2023-04-30T00:08:17.517Z,10.63
2023-04-30T00:10:49.269Z,8.43
2023-04-30T00:13:21.146Z,9.90
2023-04-30T00:15:52.965Z,8.77
2023-04-30T00:18:24.760Z,10.60
2023-04-30T00:20:56.444Z,10.90
2023-04-30T00:23:28.230Z,11.17
2023-04-30T00:25:59.951Z,11.37
2023-04-30T00:28:31.692Z,7.97
2023-04-30T00:31:06.754Z,9.40
2023-04-30T00:33:38.540Z,9.33
2023-04-30T00:36:10.547Z,10.73
2023-04-30T00:38:42.385Z,9.73
2023-04-30T00:41:14.282Z,10.20
2023-04-30T00:43:47.157Z,7.40
2023-04-30T00:46:18.935Z,8.77
2023-04-30T00:48:50.837Z,8.70
2023-04-30T00:51:23.262Z,8.70
2023-04-30T00:53:55.196Z,9.33
2023-04-30T00:56:27.001Z,8.87
2023-04-30T00:58:59.149Z,9.20
2023-04-30T01:01:32.105Z,8.13
2023-04-30T01:04:03.917Z,8.60
2023-04-30T01:06:35.888Z,10.20
2023-04-30T01:09:07.893Z,10.60
2023-04-30T01:11:51.470Z,11.50
2023-04-30T01:14:27.862Z,14.00
2023-04-30T01:17:04.471Z,8.70
2023-04-30T01:19:44.754Z,10.80
2023-04-30T01:22:28.512Z,11.83
2023-04-30T01:25:25.757Z,9.80
2023-04-30T01:28:17.981Z,10.47
2023-04-30T01:30:50.627Z,12.63
2023-04-30T01:33:22.625Z,14.67
2023-04-30T01:36:09.268Z,10.60
2023-04-30T01:39:03.001Z,9.20
2023-04-30T01:41:52.080Z,13.13
2023-04-30T01:44:58.267Z,10.90
2023-04-30T01:47:52.772Z,10.40
2023-04-30T01:50:42.404Z,10.67
2023-04-30T01:53:21.844Z,9.70
2023-04-30T01:56:02.734Z,10.20
2023-04-30T01:58:36.007Z,9.43
2023-04-30T02:01:07.920Z,10.77
2023-04-30T02:03:39.755Z,10.30
2023-04-30T02:06:11.646Z,10.30
2023-04-30T02:08:43.493Z,10.70
2023-04-30T02:11:15.274Z,10.70
2023-04-30T02:13:47.087Z,11.30
2023-04-30T02:16:18.815Z,9.97
2023-04-30T02:18:50.906Z,12.60
2023-04-30T02:21:22.615Z,14.07
2023-04-30T02:23:54.565Z,13.43
2023-04-30T02:26:26.728Z,11.83
2023-04-30T02:28:58.449Z,11.27
2023-04-30T02:31:30.234Z,14.40
2023-04-30T02:34:01.932Z,11.27
2023-04-30T02:36:36.509Z,12.60
2023-04-30T02:39:09.050Z,12.43
2023-04-30T02:41:40.829Z,13.37
2023-04-30T02:44:12.793Z,14.10
2023-04-30T02:46:44.571Z,15.03
2023-04-30T02:49:16.510Z,16.30
2023-04-30T02:51:48.243Z,16.93
2023-04-30T02:54:20.023Z,13.73
2023-04-30T02:56:51.718Z,16.93
2023-04-30T02:59:23.387Z,14.10
2023-04-30T03:01:55.139Z,17.17
2023-04-30T03:04:26.822Z,14.43
2023-04-30T03:07:00.659Z,18.20
2023-04-30T03:09:32.487Z,13.97
2023-04-30T03:12:04.430Z,18.77
2023-04-30T03:14:36.187Z,17.27
2023-04-30T03:17:08.025Z,15.37
2023-04-30T03:19:39.739Z,15.00
2023-04-30T03:22:11.664Z,17.00
2023-04-30T03:24:43.407Z,18.50
2023-04-30T03:27:16.887Z,13.20
2023-04-30T03:29:48.897Z,17.30
2023-04-30T03:32:20.888Z,18.73
2023-04-30T03:34:52.654Z,15.50
2023-04-30T03:37:24.403Z,13.50
2023-04-30T03:39:56.328Z,19.33
2023-04-30T03:42:28.182Z,15.02
2023-04-30T03:44:59.886Z,15.60
2023-04-30T03:47:31.711Z,15.60
2023-04-30T03:50:04.152Z,17.80
2023-04-30T03:52:36.811Z,18.23
2023-04-30T03:55:09.262Z,17.43
2023-04-30T03:57:41.049Z,19.13
2023-04-30T04:00:15.726Z,14.47
2023-04-30T04:02:48.026Z,15.63
2023-04-30T04:05:19.751Z,18.90
2023-04-30T04:07:51.446Z,20.97
2023-04-30T04:10:23.248Z,16.93
2023-04-30T04:12:55.478Z,15.63
2023-04-30T04:15:27.210Z,18.93
2023-04-30T04:17:59.188Z,19.33
2023-04-30T04:20:30.930Z,16.33
2023-04-30T04:23:02.712Z,16.73
2023-04-30T04:25:35.185Z,14.80
2023-04-30T04:28:06.947Z,13.67
2023-04-30T04:30:40.044Z,16.57
2023-04-30T04:33:11.808Z,17.90
2023-04-30T04:35:43.536Z,14.33
2023-04-30T04:38:15.552Z,18.90
2023-04-30T04:40:54.258Z,14.60
2023-04-30T04:43:26.088Z,17.07
2023-04-30T04:45:57.847Z,18.40
2023-04-30T04:48:29.598Z,19.20
2023-04-30T04:51:01.496Z,16.17
2023-04-30T04:53:34.890Z,15.23
2023-04-30T04:56:07.296Z,15.43
2023-04-30T04:58:39.169Z,14.73
2023-04-30T05:01:11.436Z,16.63
2023-04-30T05:03:43.295Z,13.60
2023-04-30T05:06:15.202Z,16.13
2023-04-30T05:08:46.973Z,16.37
2023-04-30T05:11:18.664Z,18.63
2023-04-30T05:13:50.421Z,19.70
2023-04-30T05:16:22.137Z,15.77
2023-04-30T05:18:53.897Z,16.73
2023-04-30T05:21:29.268Z,14.80
2023-04-30T05:24:01.109Z,15.97
2023-04-30T05:26:32.937Z,15.57
2023-04-30T05:29:04.642Z,16.87
2023-04-30T05:31:36.774Z,13.73
2023-04-30T05:34:08.655Z,17.37
2023-04-30T05:36:40.608Z,20.80
2023-04-30T05:39:13.310Z,13.73
2023-04-30T05:41:45.090Z,16.10
2023-04-30T05:44:16.758Z,13.57
2023-04-30T05:46:48.478Z,14.53
2023-04-30T05:49:20.298Z,13.47
2023-04-30T05:51:51.984Z,13.57
2023-04-30T05:54:23.738Z,14.67
2023-04-30T05:56:55.559Z,13.37
2023-04-30T05:59:27.281Z,17.70
2023-04-30T06:01:59.069Z,15.83
2023-04-30T06:04:31.678Z,14.07
2023-04-30T06:07:03.449Z,17.30
2023-04-30T06:09:35.325Z,13.77
2023-04-30T06:12:07.182Z,14.67
2023-04-30T06:14:39.652Z,14.93
2023-04-30T06:17:12.300Z,15.30
2023-04-30T06:19:44.054Z,17.13
2023-04-30T06:22:15.843Z,14.60
2023-04-30T06:24:47.524Z,15.57
2023-04-30T06:27:19.202Z,14.47
2023-04-30T06:29:50.963Z,14.53
2023-04-30T06:32:22.708Z,17.10
2023-04-30T06:34:55.291Z,16.27
2023-04-30T06:37:27.019Z,15.60
2023-04-30T06:39:58.747Z,14.87
2023-04-30T06:42:34.428Z,16.30
2023-04-30T06:45:09.369Z,13.67
2023-04-30T06:47:42.846Z,15.23
2023-04-30T06:50:15.832Z,15.63
2023-04-30T06:52:47.887Z,13.63
2023-04-30T06:55:19.749Z,14.07
2023-04-30T06:57:52.701Z,13.10
2023-04-30T07:00:24.774Z,16.00
2023-04-30T07:02:57.282Z,14.00
2023-04-30T07:05:30.611Z,15.57
2023-04-30T07:08:03.626Z,13.83
2023-04-30T07:10:35.365Z,15.70
2023-04-30T07:13:08.321Z,14.37
2023-04-30T07:15:40.497Z,14.30
2023-04-30T07:18:12.353Z,13.23
2023-04-30T07:20:44.204Z,14.60
2023-04-30T07:23:15.927Z,12.83
2023-04-30T07:25:47.830Z,14.07
2023-04-30T07:28:19.578Z,13.15
2023-04-30T07:30:51.401Z,13.03
2023-04-30T07:33:23.298Z,13.40
2023-04-30T07:35:56.641Z,14.53
2023-04-30T07:38:29.384Z,13.10
2023-04-30T07:41:01.805Z,12.57
2023-04-30T07:43:33.557Z,13.10
2023-04-30T07:46:05.547Z,12.33
2023-04-30T07:48:37.805Z,11.53
2023-04-30T07:51:09.673Z,11.10
2023-04-30T07:53:41.358Z,12.33
2023-04-30T07:56:13.039Z,12.13
2023-04-30T07:58:44.798Z,10.13
2023-04-30T08:01:16.901Z,10.20
2023-04-30T08:03:48.721Z,10.63
2023-04-30T08:06:20.752Z,11.33
2023-04-30T08:08:52.501Z,8.83
2023-04-30T08:11:24.412Z,12.23
2023-04-30T08:13:56.272Z,12.43
2023-04-30T08:16:28.096Z,10.43
2023-04-30T08:19:00.588Z,10.70
2023-04-30T08:21:32.502Z,9.00
2023-04-30T08:24:04.356Z,10.18
2023-04-30T08:26:36.063Z,10.80
2023-04-30T08:29:08.416Z,9.80
2023-04-30T08:31:40.364Z,9.60
2023-04-30T08:34:12.179Z,9.57
2023-04-30T08:36:43.848Z,10.80
2023-04-30T08:39:15.578Z,10.23
2023-04-30T08:41:55.606Z,9.13
2023-04-30T08:44:28.144Z,9.17
2023-04-30T08:47:02.106Z,9.10
2023-04-30T08:49:36.244Z,8.37
2023-04-30T08:52:08.598Z,7.17
2023-04-30T08:54:40.487Z,7.40
2023-04-30T08:57:12.264Z,9.07
2023-04-30T08:59:49.523Z,8.47
2023-04-30T09:02:21.391Z,8.60
2023-04-30T09:04:53.305Z,8.20
2023-04-30T09:07:27.993Z,8.03
2023-04-30T09:10:00.697Z,7.13
2023-04-30T09:12:32.542Z,7.97
2023-04-30T09:15:06.032Z,6.47
2023-04-30T09:17:38.083Z,6.73
2023-04-30T09:20:12.340Z,6.55
2023-04-30T09:22:44.133Z,7.00
2023-04-30T09:25:16.348Z,8.57
2023-04-30T09:27:48.140Z,8.90
2023-04-30T09:30:32.822Z,8.83
2023-04-30T09:33:04.925Z,7.50
2023-04-30T09:35:44.557Z,8.50
2023-04-30T09:38:30.722Z,6.83
2023-04-30T09:41:02.781Z,8.60
2023-04-30T09:43:34.617Z,7.97
2023-04-30T09:46:06.461Z,7.23
2023-04-30T09:48:41.864Z,7.27
2023-04-30T09:51:14.120Z,7.30
2023-04-30T09:53:46.042Z,7.10
2023-04-30T09:56:22.529Z,7.37
2023-04-30T09:58:56.150Z,6.63
2023-04-30T10:01:28.948Z,7.00
2023-04-30T10:04:01.704Z,5.97
2023-04-30T10:06:35.582Z,7.50
2023-04-30T10:09:09.113Z,8.23
2023-04-30T10:11:42.850Z,7.17
2023-04-30T10:14:20.094Z,8.00
2023-04-30T10:16:57.742Z,6.93
2023-04-30T10:19:36.279Z,7.83
2023-04-30T10:22:09.411Z,8.30
2023-04-30T10:24:43.173Z,6.50
2023-04-30T10:27:15.088Z,6.67
2023-04-30T10:29:47.723Z,6.60
2023-04-30T10:32:21.357Z,6.70
2023-04-30T10:35:08.101Z,7.40
2023-04-30T10:37:53.702Z,7.20
2023-04-30T10:40:28.486Z,6.47
2023-04-30T10:43:00.237Z,7.97
2023-04-30T10:45:41.430Z,6.57
2023-04-30T10:48:15.477Z,7.03
2023-04-30T10:50:50.274Z,7.87
2023-04-30T10:53:23.040Z,6.50
2023-04-30T10:56:06.653Z,6.60
2023-04-30T10:58:40.180Z,7.37
2023-04-30T11:01:13.799Z,6.00
2023-04-30T11:04:09.100Z,7.50
2023-04-30T11:06:53.891Z,6.57
2023-04-30T11:09:38.874Z,6.00
2023-04-30T11:12:28.448Z,5.72
2023-04-30T11:15:19.866Z,6.30
2023-04-30T11:17:56.366Z,5.47
2023-04-30T11:20:28.404Z,6.00
2023-04-30T11:23:25.233Z,5.53
2023-04-30T11:26:04.812Z,5.60
2023-04-30T11:28:38.029Z,5.27
2023-04-30T11:31:09.951Z,5.17
2023-04-30T11:33:41.750Z,4.77
2023-04-30T11:36:14.534Z,5.57
2023-04-30T11:38:46.546Z,5.50
2023-04-30T11:41:21.492Z,5.53
2023-04-30T11:43:53.161Z,5.73
2023-04-30T11:46:24.895Z,4.20
2023-04-30T11:48:57.641Z,4.70
2023-04-30T11:51:29.718Z,6.07
2023-04-30T11:54:01.887Z,6.10
2023-04-30T11:56:40.202Z,6.00
2023-04-30T11:59:13.209Z,4.50
2023-04-30T12:01:45.057Z,5.23
2023-04-30T12:04:17.086Z,5.50
2023-04-30T12:06:49.265Z,6.23
2023-04-30T12:09:21.085Z,5.22
2023-04-30T12:11:52.799Z,5.50
2023-04-30T12:14:25.277Z,6.13
2023-04-30T12:16:57.115Z,6.00
2023-04-30T12:19:28.883Z,5.80
2023-04-30T12:22:00.688Z,5.83
2023-04-30T12:24:32.405Z,5.90
2023-04-30T12:27:04.216Z,6.43
2023-04-30T12:29:44.364Z,6.33
2023-04-30T12:32:19.341Z,5.77
2023-04-30T12:34:51.529Z,5.37
2023-04-30T12:37:23.300Z,5.47
2023-04-30T12:39:56.247Z,5.10
2023-04-30T12:42:35.850Z,5.03
2023-04-30T12:45:08.318Z,6.50
2023-04-30T12:47:41.904Z,5.60
2023-04-30T12:50:13.718Z,5.50
2023-04-30T12:52:46.401Z,5.67
2023-04-30T12:55:20.870Z,5.33
2023-04-30T12:58:09.908Z,6.00
2023-04-30T13:00:48.965Z,5.03
2023-04-30T13:03:21.642Z,5.50
2023-04-30T13:05:54.166Z,5.40
2023-04-30T13:08:26.225Z,5.83
2023-04-30T13:10:57.929Z,6.53
2023-04-30T13:13:29.741Z,5.40
2023-04-30T13:16:01.486Z,5.60
2023-04-30T13:18:33.606Z,5.83
2023-04-30T13:21:05.420Z,6.50
2023-04-30T13:23:48.710Z,6.23
2023-04-30T13:26:24.570Z,7.00
2023-04-30T13:28:56.282Z,6.00
2023-04-30T13:31:28.084Z,6.00
2023-04-30T13:33:59.803Z,5.93
2023-04-30T13:36:31.548Z,6.33
2023-04-30T13:39:04.379Z,5.83
2023-04-30T13:41:36.149Z,5.80
2023-04-30T13:44:07.916Z,5.80
2023-04-30T13:46:39.675Z,6.17
2023-04-30T13:49:11.461Z,6.67
2023-04-30T13:51:43.210Z,6.67
2023-04-30T13:54:14.943Z,6.27
2023-04-30T13:56:46.781Z,5.67
2023-04-30T13:59:19.093Z,6.17
2023-04-30T14:01:50.908Z,6.25
2023-04-30T14:04:22.684Z,6.20
2023-04-30T14:06:56.666Z,5.57
2023-04-30T14:09:29.128Z,6.60
2023-04-30T14:12:00.862Z,5.97
2023-04-30T14:14:32.572Z,6.43
2023-04-30T14:17:05.069Z,5.53
2023-04-30T14:19:36.843Z,6.20
2023-04-30T14:22:08.605Z,6.10
2023-04-30T14:24:40.564Z,5.13
2023-04-30T14:27:12.257Z,6.40
2023-04-30T14:29:44.002Z,5.47
2023-04-30T14:32:15.890Z,6.13
2023-04-30T14:34:47.665Z,5.40
2023-04-30T14:37:19.754Z,4.83
2023-04-30T14:39:51.542Z,5.10
2023-04-30T14:42:23.294Z,5.93
2023-04-30T14:44:55.050Z,6.60
2023-04-30T14:47:27.743Z,5.73
2023-04-30T14:50:02.106Z,6.20
2023-04-30T14:52:33.865Z,5.13
2023-04-30T14:55:06.134Z,5.87
2023-04-30T14:57:37.973Z,5.60
2023-04-30T15:00:11.055Z,4.87
2023-04-30T15:02:42.872Z,6.43
2023-04-30T15:05:14.672Z,5.70
2023-04-30T15:07:46.440Z,5.30
2023-04-30T15:10:18.810Z,5.50
2023-04-30T15:12:50.530Z,6.27
2023-04-30T15:15:27.836Z,5.13
2023-04-30T15:18:01.403Z,5.40
2023-04-30T15:20:33.212Z,5.60
2023-04-30T15:23:05.465Z,6.40
2023-04-30T15:25:37.791Z,5.40
2023-04-30T15:28:09.938Z,5.97
2023-04-30T15:30:41.839Z,5.45
2023-04-30T15:33:13.660Z,5.20
2023-04-30T15:35:46.284Z,5.43
2023-04-30T15:38:18.047Z,6.50
2023-04-30T15:40:49.757Z,6.23
2023-04-30T15:43:21.801Z,5.87
2023-04-30T15:45:53.564Z,6.13
2023-04-30T15:48:25.642Z,5.60
2023-04-30T15:50:57.473Z,5.70
2023-04-30T15:53:29.189Z,5.27
2023-04-30T15:56:01.003Z,5.68
2023-04-30T15:58:32.703Z,6.03
2023-04-30T16:01:04.567Z,5.43
2023-04-30T16:03:37.603Z,5.50
2023-04-30T16:06:09.871Z,6.23
2023-04-30T16:08:42.772Z,6.20
2023-04-30T16:11:14.724Z,6.03
2023-04-30T16:13:47.360Z,6.13
2023-04-30T16:16:19.137Z,7.40
2023-04-30T16:18:51.004Z,6.20
2023-04-30T16:21:23.789Z,6.33
2023-04-30T16:23:55.500Z,6.00
2023-04-30T16:26:27.358Z,5.93
2023-04-30T16:28:59.057Z,5.47
2023-04-30T16:31:31.029Z,6.23
2023-04-30T16:34:02.826Z,6.30
2023-04-30T16:36:34.638Z,6.07
2023-04-30T16:39:06.596Z,5.50
2023-04-30T16:41:38.342Z,5.90
2023-04-30T16:44:11.225Z,7.30
2023-04-30T16:46:42.982Z,5.90
2023-04-30T16:49:14.902Z,6.90
2023-04-30T16:51:47.102Z,6.43
2023-04-30T16:54:18.794Z,5.60
2023-04-30T16:56:50.525Z,6.67
2023-04-30T16:59:24.560Z,5.90
2023-04-30T17:01:58.579Z,6.13
2023-04-30T17:04:31.158Z,5.43
2023-04-30T17:07:03.279Z,7.00
2023-04-30T17:09:35.239Z,5.67
2023-04-30T17:12:07.976Z,6.17
2023-04-30T17:14:39.698Z,6.80
2023-04-30T17:17:11.356Z,6.23
2023-04-30T17:19:43.079Z,5.93
2023-04-30T17:22:19.393Z,6.40
2023-04-30T17:24:51.145Z,6.60
2023-04-30T17:27:23.340Z,6.20
2023-04-30T17:29:55.697Z,6.90
2023-04-30T17:32:27.886Z,5.97
2023-04-30T17:35:01.567Z,6.87
2023-04-30T17:37:33.332Z,6.17
2023-04-30T17:40:05.794Z,7.30
2023-04-30T17:42:38.851Z,8.00
2023-04-30T17:45:11.186Z,9.10
2023-04-30T17:47:42.975Z,10.37
2023-04-30T17:50:15.627Z,7.97
2023-04-30T17:52:47.486Z,6.87
2023-04-30T17:55:19.229Z,7.30
2023-04-30T17:57:51.011Z,8.20
2023-04-30T18:00:23.400Z,6.77
2023-04-30T18:02:55.229Z,5.53
2023-04-30T18:05:27.115Z,7.70
2023-04-30T18:07:58.908Z,7.37
2023-04-30T18:10:30.793Z,6.30
2023-04-30T18:13:02.769Z,6.57
2023-04-30T18:15:34.461Z,6.60
2023-04-30T18:18:06.461Z,8.10
2023-04-30T18:20:38.329Z,7.33
2023-04-30T18:23:10.236Z,6.87
2023-04-30T18:25:44.834Z,7.27
2023-04-30T18:28:16.633Z,6.40
2023-04-30T18:30:48.331Z,8.03
2023-04-30T18:33:20.096Z,5.93
2023-04-30T18:35:52.961Z,7.73
2023-04-30T18:38:26.157Z,6.80
2023-04-30T18:40:57.869Z,7.60
2023-04-30T18:43:29.639Z,6.07
2023-04-30T18:46:01.485Z,6.78
2023-04-30T18:48:33.310Z,6.27
2023-04-30T18:51:05.082Z,7.60
2023-04-30T18:53:36.770Z,7.23
2023-04-30T18:56:08.422Z,8.03
2023-04-30T18:58:45.625Z,8.97
2023-04-30T19:01:18.897Z,11.90
2023-04-30T19:03:50.662Z,18.13
2023-04-30T19:06:22.542Z,19.97
2023-04-30T19:08:55.829Z,15.87
2023-04-30T19:11:27.827Z,15.47
2023-04-30T19:13:59.572Z,12.20
2023-04-30T19:16:31.471Z,12.23
2023-04-30T19:19:03.867Z,12.25
2023-04-30T19:21:36.408Z,10.97
2023-04-30T19:24:08.125Z,8.83
2023-04-30T19:26:42.350Z,8.40
2023-04-30T19:29:14.053Z,8.67
2023-04-30T19:31:45.802Z,8.10
2023-04-30T19:34:17.514Z,7.93
2023-04-30T19:36:49.823Z,6.97
2023-04-30T19:39:21.520Z,6.70
2023-04-30T19:41:53.175Z,8.17
2023-04-30T19:44:25.017Z,6.90
2023-04-30T19:46:56.693Z,7.50
2023-04-30T19:49:28.538Z,6.93
2023-04-30T19:52:00.350Z,7.17
2023-04-30T19:54:32.095Z,6.43
2023-04-30T19:57:03.832Z,7.00
2023-04-30T19:59:35.578Z,7.23
2023-04-30T20:02:08.068Z,7.17
2023-04-30T20:04:39.936Z,7.87
2023-04-30T20:07:11.992Z,6.43
2023-04-30T20:09:43.669Z,7.20
2023-04-30T20:12:15.518Z,7.63
2023-04-30T20:14:47.249Z,6.73
2023-04-30T20:17:19.199Z,7.50
2023-04-30T20:19:50.956Z,7.23
2023-04-30T20:22:22.780Z,8.43
2023-04-30T20:24:54.492Z,7.57
2023-04-30T20:27:26.226Z,7.93
2023-04-30T20:29:58.404Z,7.73
2023-04-30T20:32:31.630Z,7.80
2023-04-30T20:35:03.844Z,6.80
2023-04-30T20:37:36.517Z,7.67
2023-04-30T20:40:08.904Z,7.80
2023-04-30T20:42:40.727Z,7.17
2023-04-30T20:45:12.455Z,8.07
2023-04-30T20:47:44.299Z,7.70
2023-04-30T20:50:16.666Z,8.53
2023-04-30T20:52:48.432Z,10.83
2023-04-30T20:55:21.039Z,9.17
2023-04-30T20:57:52.772Z,7.97
2023-04-30T21:00:24.651Z,8.53
2023-04-30T21:02:56.507Z,8.87
2023-04-30T21:05:30.047Z,8.60
2023-04-30T21:08:02.021Z,9.00
2023-04-30T21:10:36.458Z,8.30
2023-04-30T21:13:09.516Z,7.80
2023-04-30T21:15:42.767Z,8.67
2023-04-30T21:18:14.527Z,8.40
2023-04-30T21:20:46.300Z,8.50
2023-04-30T21:23:18.524Z,7.73
2023-04-30T21:25:54.208Z,11.40
2023-04-30T21:28:26.026Z,8.60
2023-04-30T21:30:57.781Z,10.40
2023-04-30T21:33:30.213Z,9.30
2023-04-30T21:36:02.126Z,9.98
2023-04-30T21:38:34.651Z,9.20
2023-04-30T21:41:07.020Z,9.03
2023-04-30T21:43:39.261Z,9.90
2023-04-30T21:46:11.244Z,9.50
2023-04-30T21:48:43.242Z,8.00
2023-04-30T21:51:17.020Z,7.77
2023-04-30T21:53:48.668Z,8.13
2023-04-30T21:56:21.703Z,7.43
2023-04-30T21:58:53.583Z,7.57
2023-04-30T22:01:27.684Z,7.67
2023-04-30T22:03:59.760Z,8.80
2023-04-30T22:06:34.036Z,7.97
2023-04-30T22:09:06.165Z,8.20
2023-04-30T22:11:37.936Z,9.60
2023-04-30T22:14:09.665Z,7.97
2023-04-30T22:16:41.523Z,9.13
2023-04-30T22:19:13.237Z,7.53
2023-04-30T22:21:44.913Z,7.30
2023-04-30T22:24:16.666Z,8.10
2023-04-30T22:26:48.358Z,7.77
2023-04-30T22:29:20.431Z,8.17
2023-04-30T22:31:52.353Z,9.03
2023-04-30T22:34:24.197Z,8.13
2023-04-30T22:36:56.505Z,8.27
2023-04-30T22:39:28.241Z,8.50
2023-04-30T22:42:00.114Z,7.83
2023-04-30T22:44:32.240Z,7.40
2023-04-30T22:47:04.212Z,7.93
2023-04-30T22:49:38.766Z,8.27
2023-04-30T22:52:10.568Z,8.90
2023-04-30T22:54:42.558Z,7.90
2023-04-30T22:57:14.444Z,8.40
2023-04-30T22:59:46.174Z,8.40
2023-04-30T23:02:20.074Z,7.40
2023-04-30T23:04:52.469Z,7.60
2023-04-30T23:07:24.367Z,8.10
2023-04-30T23:09:56.329Z,13.20
2023-04-30T23:12:28.633Z,7.50
2023-04-30T23:15:00.361Z,9.00
2023-04-30T23:17:32.325Z,8.10
2023-04-30T23:20:04.545Z,7.50
2023-04-30T23:22:36.356Z,8.03
2023-04-30T23:25:08.271Z,11.27
2023-04-30T23:27:40.000Z,7.40
2023-04-30T23:30:12.061Z,7.80
2023-04-30T23:32:43.843Z,8.53
2023-04-30T23:35:15.624Z,8.80
2023-04-30T23:37:47.366Z,9.20
2023-04-30T23:40:19.969Z,8.13
2023-04-30T23:42:51.709Z,8.10
2023-04-30T23:45:23.561Z,7.73
2023-04-30T23:47:55.330Z,8.13
2023-04-30T23:50:27.262Z,8.40
2023-04-30T23:52:58.993Z,7.77
2023-04-30T23:55:30.790Z,9.07
2023-04-30T23:58:02.524Z,7.97
